createdAt,value
2019-04-19T00:00:37.005Z,1006.03
2019-04-19T00:01:55.267Z,1006.00
2019-04-19T00:02:58.181Z,1006.00
2019-04-19T00:04:11.985Z,1005.91
2019-04-19T00:05:20.060Z,1006.02
2019-04-19T00:06:34.438Z,1006.01
2019-04-19T00:07:47.987Z,1006.17
2019-04-19T00:09:09.092Z,1006.17
2019-04-19T00:10:18.353Z,1006.18
2019-04-19T00:11:23.257Z,1006.25
2019-04-19T00:12:35.286Z,1006.28
2019-04-19T00:13:36.766Z,1006.30
2019-04-19T00:14:46.621Z,1006.42
2019-04-19T00:15:58.448Z,1006.46
2019-04-19T00:17:13.975Z,1006.45
2019-04-19T00:18:20.073Z,1006.44
2019-04-19T00:19:44.415Z,1006.30
2019-04-19T00:21:03.007Z,1006.42
2019-04-19T00:23:13.479Z,1006.37
2019-04-19T00:24:14.382Z,1006.44
2019-04-19T00:25:23.922Z,1006.36
2019-04-19T00:26:35.891Z,1006.40
2019-04-19T00:27:51.708Z,1006.44
2019-04-19T00:29:00.960Z,1006.42
2019-04-19T00:30:18.037Z,1006.41
2019-04-19T00:31:31.760Z,1006.43
2019-04-19T00:32:41.369Z,1006.47
2019-04-19T00:33:45.533Z,1006.40
2019-04-19T00:34:50.599Z,1006.38
2019-04-19T00:36:02.763Z,1006.38
2019-04-19T00:37:12.231Z,1006.39
2019-04-19T00:38:40.524Z,1006.34
2019-04-19T00:39:48.815Z,1006.21
2019-04-19T00:41:04.042Z,1006.25
2019-04-19T00:42:10.387Z,1006.16
2019-04-19T00:43:28.161Z,1006.15
2019-04-19T00:44:43.071Z,1006.16
2019-04-19T00:45:43.143Z,1006.10
2019-04-19T00:47:01.441Z,1006.12
2019-04-19T00:48:02.805Z,1006.09
2019-04-19T00:49:14.748Z,1006.13
2019-04-19T00:50:22.421Z,1006.14
2019-04-19T00:51:40.897Z,1006.20
2019-04-19T00:52:51.851Z,1006.26
2019-04-19T00:53:55.801Z,1006.28
2019-04-19T00:55:04.298Z,1006.33
2019-04-19T00:56:13.501Z,1006.35
2019-04-19T00:57:26.749Z,1006.44
2019-04-19T00:58:31.478Z,1006.38
2019-04-19T00:59:43.340Z,1006.48
2019-04-19T01:00:49.649Z,1006.63
2019-04-19T01:02:07.406Z,1006.65
2019-04-19T01:03:14.283Z,1006.73
2019-04-19T01:04:25.771Z,1006.76
2019-04-19T01:05:42.424Z,1006.74
2019-04-19T01:06:49.882Z,1006.75
2019-04-19T01:07:54.313Z,1006.79
2019-04-19T01:09:22.731Z,1006.82
2019-04-19T01:10:31.365Z,1006.86
2019-04-19T01:11:35.973Z,1006.83
2019-04-19T01:12:52.517Z,1006.84
2019-04-19T01:14:00.970Z,1006.88
2019-04-19T01:15:10.646Z,1006.88
2019-04-19T01:16:21.162Z,1006.87
2019-04-19T01:17:34.887Z,1006.86
2019-04-19T01:18:43.319Z,1006.84
2019-04-19T01:19:47.996Z,1006.89
2019-04-19T01:20:54.208Z,1006.87
2019-04-19T01:22:11.806Z,1006.88
2019-04-19T01:23:17.057Z,1006.95
2019-04-19T01:24:33.334Z,1006.92
2019-04-19T01:25:37.168Z,1006.94
2019-04-19T01:26:51.017Z,1006.95
2019-04-19T01:28:06.192Z,1006.96
2019-04-19T01:29:12.418Z,1006.94
2019-04-19T01:30:26.607Z,1006.94
2019-04-19T01:31:32.224Z,1006.91
2019-04-19T01:32:49.607Z,1006.91
2019-04-19T01:33:54.594Z,1006.94
2019-04-19T01:35:11.447Z,1006.86
2019-04-19T01:36:18.949Z,1006.94
2019-04-19T01:37:28.275Z,1006.88
2019-04-19T01:38:40.933Z,1006.89
2019-04-19T01:40:05.904Z,1006.87
2019-04-19T01:41:11.873Z,1006.93
2019-04-19T01:42:26.478Z,1006.92
2019-04-19T01:43:40.921Z,1006.96
2019-04-19T01:44:49.634Z,1006.90
2019-04-19T01:46:01.012Z,1006.95
2019-04-19T01:47:07.883Z,1006.97
2019-04-19T01:48:25.980Z,1006.98
2019-04-19T01:49:23.270Z,1006.96
2019-04-19T01:50:47.602Z,1007.02
2019-04-19T01:51:53.090Z,1007.01
2019-04-19T01:53:09.712Z,1007.04
2019-04-19T01:54:16.335Z,1007.00
2019-04-19T01:55:16.921Z,1006.99
2019-04-19T01:56:21.320Z,1007.00
2019-04-19T01:57:30.454Z,1007.03
2019-04-19T01:58:48.110Z,1007.02
2019-04-19T01:59:55.412Z,1007.03
2019-04-19T02:01:07.792Z,1007.07
2019-04-19T02:02:17.454Z,1007.04
2019-04-19T02:03:33.425Z,1007.03
2019-04-19T02:04:37.693Z,1007.04
2019-04-19T02:05:52.720Z,1007.07
2019-04-19T02:06:56.855Z,1007.02
2019-04-19T02:08:11.115Z,1007.05
2019-04-19T02:09:30.342Z,1007.04
2019-04-19T02:10:40.639Z,1006.99
2019-04-19T02:11:50.476Z,1007.04
2019-04-19T02:13:02.888Z,1007.00
2019-04-19T02:14:08.638Z,1007.04
2019-04-19T02:15:19.491Z,1007.05
2019-04-19T02:16:26.471Z,1007.04
2019-04-19T02:17:41.446Z,1007.03
2019-04-19T02:18:45.309Z,1007.04
2019-04-19T02:20:01.138Z,1007.05
2019-04-19T02:21:06.755Z,1007.01
2019-04-19T02:22:22.778Z,1006.97
2019-04-19T02:23:28.254Z,1006.99
2019-04-19T02:24:45.317Z,1007.06
2019-04-19T02:25:52.605Z,1007.05
2019-04-19T02:27:04.744Z,1007.07
2019-04-19T02:28:15.920Z,1007.06
2019-04-19T02:29:26.590Z,1007.07
2019-04-19T02:30:48.047Z,1007.08
2019-04-19T02:32:24.760Z,1007.07
2019-04-19T02:33:27.647Z,1007.08
2019-04-19T02:35:47.904Z,1007.08
2019-04-19T02:37:00.566Z,1007.07
2019-04-19T02:38:03.771Z,1007.08
2019-04-19T02:41:34.645Z,1007.13
2019-04-19T02:42:44.508Z,1007.11
2019-04-19T02:44:00.919Z,1007.14
2019-04-19T02:48:48.073Z,1007.13
2019-04-19T02:50:12.987Z,1007.15
2019-04-19T02:51:17.446Z,1007.11
2019-04-19T02:53:26.313Z,1007.09
2019-04-19T02:57:02.081Z,1007.08
2019-04-19T02:59:30.834Z,1007.07
2019-04-19T03:00:39.576Z,1007.02
2019-04-19T03:01:44.832Z,1007.04
2019-04-19T03:02:53.245Z,1007.02
2019-04-19T03:04:15.929Z,1006.97
2019-04-19T03:06:13.334Z,1007.03
2019-04-19T03:07:09.139Z,1007.00
2019-04-19T03:08:18.648Z,1007.00
2019-04-19T03:09:34.685Z,1006.98
2019-04-19T03:10:53.688Z,1006.98
2019-04-19T03:12:03.505Z,1006.93
2019-04-19T03:13:19.954Z,1006.95
2019-04-19T03:14:24.551Z,1006.95
2019-04-19T03:15:44.150Z,1006.91
2019-04-19T03:16:51.142Z,1006.91
2019-04-19T03:18:03.618Z,1006.92
2019-04-19T03:19:09.462Z,1006.92
2019-04-19T03:20:24.391Z,1006.90
2019-04-19T03:21:31.935Z,1006.85
2019-04-19T03:22:46.950Z,1006.84
2019-04-19T03:23:56.620Z,1006.86
2019-04-19T03:25:06.586Z,1006.82
2019-04-19T03:26:17.159Z,1006.81
2019-04-19T03:27:17.952Z,1006.80
2019-04-19T03:28:34.102Z,1006.79
2019-04-19T03:29:38.835Z,1006.80
2019-04-19T03:31:20.727Z,1006.81
2019-04-19T03:32:35.299Z,1006.82
2019-04-19T03:34:51.409Z,1006.77
2019-04-19T03:35:49.883Z,1006.78
2019-04-19T03:36:50.399Z,1006.82
2019-04-19T03:38:06.954Z,1006.80
2019-04-19T03:39:23.174Z,1006.82
2019-04-19T03:40:34.741Z,1006.87
2019-04-19T03:42:51.579Z,1006.90
2019-04-19T03:44:03.793Z,1006.90
2019-04-19T03:45:13.805Z,1006.95
2019-04-19T03:46:19.039Z,1007.01
2019-04-19T03:47:42.512Z,1007.05
2019-04-19T03:48:43.870Z,1007.02
2019-04-19T03:49:52.397Z,1007.04
2019-04-19T03:51:18.480Z,1007.03
2019-04-19T03:52:21.907Z,1007.02
2019-04-19T03:53:34.729Z,1007.04
2019-04-19T03:54:33.364Z,1007.07
2019-04-19T03:55:57.804Z,1007.04
2019-04-19T03:56:59.238Z,1007.05
2019-04-19T03:58:01.379Z,1007.11
2019-04-19T03:59:03.454Z,1007.16
2019-04-19T04:00:15.303Z,1007.20
2019-04-19T04:01:29.818Z,1007.18
2019-04-19T04:02:41.128Z,1007.21
2019-04-19T04:03:49.446Z,1007.29
2019-04-19T04:05:02.646Z,1007.29
2019-04-19T04:06:08.440Z,1007.34
2019-04-19T04:07:22.806Z,1007.33
2019-04-19T04:08:32.359Z,1007.33
2019-04-19T04:09:46.797Z,1007.39
2019-04-19T04:10:52.085Z,1007.41
2019-04-19T04:12:18.406Z,1007.44
2019-04-19T04:13:25.535Z,1007.47
2019-04-19T04:14:32.033Z,1007.49
2019-04-19T04:15:47.900Z,1007.49
2019-04-19T04:16:49.022Z,1007.45
2019-04-19T04:17:56.390Z,1007.46
2019-04-19T04:19:06.780Z,1007.48
2019-04-19T04:20:17.788Z,1007.49
2019-04-19T04:21:34.493Z,1007.47
2019-04-19T04:22:43.532Z,1007.53
2019-04-19T04:24:02.327Z,1007.54
2019-04-19T04:25:09.410Z,1007.54
2019-04-19T04:26:14.770Z,1007.53
2019-04-19T04:27:38.988Z,1007.54
2019-04-19T04:28:50.356Z,1007.56
2019-04-19T04:29:57.358Z,1007.55
2019-04-19T04:31:05.837Z,1007.59
2019-04-19T04:32:15.747Z,1007.59
2019-04-19T04:33:30.103Z,1007.64
2019-04-19T04:34:38.530Z,1007.62
2019-04-19T04:35:53.322Z,1007.68
2019-04-19T04:37:04.845Z,1007.78
2019-04-19T04:38:10.374Z,1007.73
2019-04-19T04:39:11.248Z,1007.74
2019-04-19T04:40:21.116Z,1007.77
2019-04-19T04:41:33.265Z,1007.80
2019-04-19T04:42:58.709Z,1007.82
2019-04-19T04:44:13.486Z,1007.80
2019-04-19T04:45:39.889Z,1007.79
2019-04-19T04:46:38.825Z,1007.84
2019-04-19T04:47:43.539Z,1007.85
2019-04-19T04:48:55.302Z,1007.81
2019-04-19T04:50:11.300Z,1007.86
2019-04-19T04:51:15.396Z,1007.85
2019-04-19T04:52:15.170Z,1007.86
2019-04-19T04:53:21.334Z,1007.88
2019-04-19T04:54:31.379Z,1007.94
2019-04-19T04:55:46.393Z,1007.88
2019-04-19T04:57:02.253Z,1007.95
2019-04-19T04:58:06.652Z,1007.94
2019-04-19T04:59:18.916Z,1007.97
2019-04-19T05:00:32.007Z,1007.98
2019-04-19T05:01:47.584Z,1007.97
2019-04-19T05:03:03.826Z,1007.99
2019-04-19T05:04:12.786Z,1007.94
2019-04-19T05:05:25.864Z,1007.94
2019-04-19T05:06:35.343Z,1007.94
2019-04-19T05:07:52.661Z,1007.92
2019-04-19T05:08:59.340Z,1007.85
2019-04-19T05:10:12.563Z,1007.85
2019-04-19T05:11:22.759Z,1007.82
2019-04-19T05:12:44.606Z,1007.85
2019-04-19T05:13:43.729Z,1007.81
2019-04-19T05:14:48.972Z,1007.78
2019-04-19T05:16:06.654Z,1007.76
2019-04-19T05:17:27.552Z,1007.71
2019-04-19T05:18:24.835Z,1007.68
2019-04-19T05:19:41.618Z,1007.65
2019-04-19T05:20:45.967Z,1007.63
2019-04-19T05:21:57.632Z,1007.61
2019-04-19T05:23:12.264Z,1007.56
2019-04-19T05:24:21.092Z,1007.54
2019-04-19T05:25:37.357Z,1007.53
2019-04-19T05:26:52.617Z,1007.45
2019-04-19T05:27:55.296Z,1007.47
2019-04-19T05:28:59.748Z,1007.46
2019-04-19T05:29:57.839Z,1007.46
2019-04-19T05:31:10.674Z,1007.44
2019-04-19T05:32:25.623Z,1007.41
2019-04-19T05:33:44.074Z,1007.39
2019-04-19T05:34:58.677Z,1007.34
2019-04-19T05:36:11.108Z,1007.32
2019-04-19T05:37:14.978Z,1007.36
2019-04-19T05:38:30.450Z,1007.33
2019-04-19T05:39:41.334Z,1007.27
2019-04-19T05:40:47.465Z,1007.29
2019-04-19T05:41:58.853Z,1007.30
2019-04-19T05:43:17.392Z,1007.27
2019-04-19T05:44:31.204Z,1007.25
2019-04-19T05:45:38.008Z,1007.27
2019-04-19T05:46:51.740Z,1007.33
2019-04-19T05:47:49.265Z,1007.33
2019-04-19T05:49:02.674Z,1007.33
2019-04-19T05:50:23.435Z,1007.35
2019-04-19T05:51:35.811Z,1007.26
2019-04-19T05:52:39.435Z,1007.29
2019-04-19T05:53:39.468Z,1007.32
2019-04-19T05:54:43.011Z,1007.32
2019-04-19T05:55:52.891Z,1007.28
2019-04-19T05:57:25.642Z,1007.29
2019-04-19T05:58:21.406Z,1007.28
2019-04-19T05:59:37.998Z,1007.29
2019-04-19T06:00:51.843Z,1007.27
2019-04-19T06:02:03.998Z,1007.24
2019-04-19T06:03:13.463Z,1007.21
2019-04-19T06:04:26.470Z,1007.22
2019-04-19T06:05:43.314Z,1007.23
2019-04-19T06:06:53.941Z,1007.25
2019-04-19T06:07:54.859Z,1007.25
2019-04-19T06:08:54.074Z,1007.24
2019-04-19T06:10:06.428Z,1007.28
2019-04-19T06:11:21.616Z,1007.26
2019-04-19T06:12:28.734Z,1007.32
2019-04-19T06:13:42.452Z,1007.28
2019-04-19T06:15:10.385Z,1007.22
2019-04-19T06:16:15.443Z,1007.22
2019-04-19T06:17:24.897Z,1007.20
2019-04-19T06:18:31.572Z,1007.13
2019-04-19T06:19:44.539Z,1007.07
2019-04-19T06:21:04.167Z,1007.05
2019-04-19T06:22:07.042Z,1006.99
2019-04-19T06:23:25.237Z,1006.95
2019-04-19T06:24:31.670Z,1006.90
2019-04-19T06:25:57.236Z,1006.85
2019-04-19T06:27:00.813Z,1006.76
2019-04-19T06:28:15.463Z,1006.87
2019-04-19T06:29:14.882Z,1006.82
2019-04-19T06:30:27.708Z,1006.74
2019-04-19T06:31:39.442Z,1006.77
2019-04-19T06:32:49.538Z,1006.68
2019-04-19T06:34:01.484Z,1006.73
2019-04-19T06:35:05.390Z,1006.78
2019-04-19T06:36:06.011Z,1006.80
2019-04-19T06:37:19.328Z,1006.77
2019-04-19T06:38:24.787Z,1006.62
2019-04-19T06:39:35.358Z,1006.61
2019-04-19T06:40:55.529Z,1006.53
2019-04-19T06:42:02.624Z,1006.41
2019-04-19T06:43:14.264Z,1006.49
2019-04-19T06:44:43.556Z,1006.42
2019-04-19T06:45:49.187Z,1006.38
2019-04-19T06:47:59.114Z,1006.19
2019-04-19T06:49:11.531Z,1006.26
2019-04-19T06:50:15.212Z,1006.08
2019-04-19T06:51:33.326Z,1006.33
2019-04-19T06:52:37.937Z,1006.21
2019-04-19T06:53:53.871Z,1006.32
2019-04-19T06:54:57.870Z,1006.24
2019-04-19T06:56:16.315Z,1006.09
2019-04-19T06:57:27.340Z,1006.08
2019-04-19T06:58:39.179Z,1006.11
2019-04-19T06:59:55.118Z,1005.58
2019-04-19T07:01:04.553Z,1005.70
2019-04-19T07:02:03.977Z,1005.64
2019-04-19T07:03:14.765Z,1005.45
2019-04-19T07:04:26.098Z,1005.48
2019-04-19T07:05:47.801Z,1005.66
2019-04-19T07:07:09.688Z,1005.85
2019-04-19T07:08:30.055Z,1005.69
2019-04-19T07:09:37.135Z,1005.98
2019-04-19T07:11:56.476Z,1005.99
2019-04-19T07:13:03.056Z,1006.06
2019-04-19T07:14:03.938Z,1006.20
2019-04-19T07:15:42.401Z,1006.17
2019-04-19T07:16:40.909Z,1006.20
2019-04-19T07:17:46.001Z,1005.84
2019-04-19T07:18:49.784Z,1005.90
2019-04-19T07:20:03.157Z,1006.15
2019-04-19T07:21:26.322Z,1006.02
2019-04-19T07:22:27.938Z,1005.94
2019-04-19T07:23:46.456Z,1005.99
2019-04-19T07:25:01.468Z,1006.10
2019-04-19T07:26:11.726Z,1006.08
2019-04-19T07:27:12.501Z,1005.88
2019-04-19T07:28:14.577Z,1005.91
2019-04-19T07:29:17.641Z,1006.01
2019-04-19T07:30:28.839Z,1006.03
2019-04-19T07:31:40.182Z,1006.05
2019-04-19T07:32:59.632Z,1006.01
2019-04-19T07:34:08.777Z,1006.03
2019-04-19T07:35:36.951Z,1005.98
2019-04-19T07:36:44.653Z,1005.74
2019-04-19T07:37:52.224Z,1005.92
2019-04-19T07:39:03.562Z,1006.04
2019-04-19T07:40:17.540Z,1006.06
2019-04-19T07:41:24.013Z,1006.09
2019-04-19T07:42:33.691Z,1006.06
2019-04-19T07:43:44.572Z,1006.23
2019-04-19T07:44:50.613Z,1005.97
2019-04-19T07:46:08.288Z,1005.88
2019-04-19T07:47:13.608Z,1005.83
2019-04-19T07:48:17.300Z,1005.41
2019-04-19T07:49:23.318Z,1005.85
2019-04-19T07:51:54.754Z,1006.17
2019-04-19T07:52:58.725Z,1006.01
2019-04-19T07:54:13.600Z,1006.16
2019-04-19T07:55:17.819Z,1006.17
2019-04-19T07:56:38.996Z,1006.10
2019-04-19T07:58:12.217Z,1005.88
2019-04-19T07:59:13.146Z,1005.41
2019-04-19T08:00:36.879Z,1005.40
2019-04-19T08:01:45.349Z,1005.64
2019-04-19T08:02:49.672Z,1006.13
2019-04-19T08:05:11.435Z,1005.87
2019-04-19T08:07:41.429Z,1005.80
2019-04-19T08:11:08.009Z,1005.96
2019-04-19T08:12:18.531Z,1005.85
2019-04-19T08:15:55.115Z,1006.05
2019-04-19T08:28:31.166Z,1002.54
2019-04-19T08:29:43.853Z,1002.25
2019-04-19T08:30:50.407Z,1001.95
2019-04-19T08:31:55.778Z,1003.37
2019-04-19T08:33:06.686Z,1003.46
2019-04-19T08:34:20.903Z,1004.13
2019-04-19T08:35:31.929Z,1004.80
2019-04-19T08:36:47.490Z,1004.99
2019-04-19T08:37:52.182Z,1003.78
2019-04-19T08:39:17.117Z,1004.51
2019-04-19T08:40:32.348Z,1005.22
2019-04-19T08:41:39.786Z,1005.10
2019-04-19T08:42:54.084Z,1005.27
2019-04-19T08:44:00.466Z,1005.11
2019-04-19T08:45:01.736Z,1005.42
2019-04-19T08:46:09.051Z,1005.53
2019-04-19T08:47:27.845Z,1005.83
2019-04-19T08:48:41.310Z,1005.94
2019-04-19T08:49:44.834Z,1005.93
2019-04-19T08:50:55.039Z,1005.76
2019-04-19T08:52:07.836Z,1005.46
2019-04-19T08:53:33.545Z,1005.74
2019-04-19T08:54:47.711Z,1006.20
2019-04-19T08:55:58.208Z,1006.37
2019-04-19T08:56:57.437Z,1005.70
2019-04-19T08:58:07.116Z,1005.89
2019-04-19T09:00:51.815Z,1005.64
2019-04-19T09:01:56.082Z,1005.27
2019-04-19T09:03:00.193Z,1005.26
2019-04-19T09:04:20.253Z,1005.89
2019-04-19T09:05:27.283Z,1005.67
2019-04-19T09:07:30.526Z,1005.63
2019-04-19T09:08:05.654Z,1005.41
2019-04-19T09:08:59.812Z,1005.50
2019-04-19T09:11:26.272Z,1005.13
2019-04-19T09:12:34.281Z,1005.28
2019-04-19T09:13:52.285Z,1005.06
2019-04-19T09:15:02.255Z,1005.06
2019-04-19T09:16:11.350Z,1005.61
2019-04-19T09:17:33.001Z,1005.68
2019-04-19T09:18:45.649Z,1005.08
2019-04-19T09:20:58.796Z,1005.24
2019-04-19T09:22:11.169Z,1004.97
2019-04-19T09:23:21.985Z,1004.99
2019-04-19T09:24:31.116Z,1005.44
2019-04-19T09:25:41.436Z,1005.04
2019-04-19T09:26:58.791Z,1004.98
2019-04-19T09:28:16.215Z,1005.00
2019-04-19T09:29:32.280Z,1005.26
2019-04-19T09:30:39.399Z,1005.02
2019-04-19T09:31:42.096Z,1004.55
2019-04-19T09:32:41.774Z,1004.87
2019-04-19T09:33:54.639Z,1004.80
2019-04-19T09:35:09.241Z,1005.23
2019-04-19T09:36:20.070Z,1005.25
2019-04-19T09:37:42.772Z,1005.09
2019-04-19T09:38:55.564Z,1005.17
2019-04-19T09:40:03.060Z,1005.16
2019-04-19T09:41:16.516Z,1004.58
2019-04-19T09:42:33.585Z,1004.39
2019-04-19T09:43:42.441Z,1004.60
2019-04-19T09:44:47.982Z,1004.51
2019-04-19T09:45:53.311Z,1004.86
2019-04-19T09:47:06.054Z,1004.69
2019-04-19T09:48:36.508Z,1005.03
2019-04-19T09:49:44.066Z,1004.62
2019-04-19T09:50:54.952Z,1004.48
2019-04-19T09:52:13.458Z,1004.70
2019-04-19T09:53:32.127Z,1004.37
2019-04-19T09:54:39.079Z,1004.64
2019-04-19T09:55:49.870Z,1004.39
2019-04-19T09:56:57.942Z,1003.98
2019-04-19T09:58:14.261Z,1003.81
2019-04-19T09:59:17.244Z,1004.39
2019-04-19T10:00:23.767Z,1004.19
2019-04-19T10:01:37.093Z,1004.46
2019-04-19T10:02:50.775Z,1004.03
2019-04-19T10:03:59.969Z,1003.42
2019-04-19T10:05:08.075Z,1004.13
2019-04-19T10:06:20.705Z,1004.37
2019-04-19T10:07:32.652Z,1004.00
2019-04-19T10:08:45.737Z,1003.73
2019-04-19T10:10:03.987Z,1003.89
2019-04-19T10:11:10.511Z,1004.01
2019-04-19T10:12:21.966Z,1004.07
2019-04-19T10:13:34.373Z,1004.22
2019-04-19T10:14:46.481Z,1003.98
2019-04-19T10:15:58.761Z,1004.29
2019-04-19T10:17:12.292Z,1004.54
2019-04-19T10:18:23.312Z,1003.88
2019-04-19T10:19:36.797Z,1004.41
2019-04-19T10:20:48.889Z,1004.46
2019-04-19T10:22:00.374Z,1004.34
2019-04-19T10:23:13.316Z,1004.24
2019-04-19T10:24:26.444Z,1003.93
2019-04-19T10:25:40.854Z,1003.66
2019-04-19T10:26:50.486Z,1004.10
2019-04-19T10:28:01.814Z,1004.27
2019-04-19T10:29:22.869Z,1004.19
2019-04-19T10:30:26.590Z,1003.71
2019-04-19T10:31:39.720Z,1004.10
2019-04-19T10:32:53.265Z,1004.47
2019-04-19T10:34:05.912Z,1004.62
2019-04-19T10:35:17.491Z,1004.52
2019-04-19T10:36:28.958Z,1004.72
2019-04-19T10:37:41.862Z,1004.86
2019-04-19T10:38:56.523Z,1004.72
2019-04-19T10:40:05.995Z,1005.14
2019-04-19T10:41:19.699Z,1005.22
2019-04-19T10:42:31.460Z,1005.04
2019-04-19T10:43:43.318Z,1005.02
2019-04-19T10:44:56.256Z,1005.47
2019-04-19T10:47:21.141Z,1005.96
2019-04-19T10:48:34.737Z,1006.03
2019-04-19T10:49:51.760Z,1005.81
2019-04-19T10:50:59.509Z,1005.86
2019-04-19T10:52:10.813Z,1006.26
2019-04-19T10:53:24.112Z,1006.28
2019-04-19T10:54:36.326Z,1006.43
2019-04-19T10:55:48.067Z,1006.33
2019-04-19T10:57:00.497Z,1006.54
2019-04-19T10:58:12.922Z,1006.14
2019-04-19T10:59:26.642Z,1006.19
2019-04-19T11:00:39.736Z,1006.37
2019-04-19T11:01:52.162Z,1006.25
2019-04-19T11:03:05.249Z,1006.25
2019-04-19T11:04:17.155Z,1006.49
2019-04-19T11:05:29.037Z,1006.15
2019-04-19T11:06:41.747Z,1006.92
2019-04-19T11:07:53.787Z,1006.83
2019-04-19T11:09:06.819Z,1006.67
2019-04-19T11:10:19.759Z,1006.18
2019-04-19T11:11:31.871Z,1006.22
2019-04-19T11:12:44.743Z,1006.39
2019-04-19T11:13:56.202Z,1006.99
2019-04-19T11:15:08.728Z,1007.05
2019-04-19T11:16:21.806Z,1006.61
2019-04-19T11:17:34.288Z,1006.79
2019-04-19T11:18:47.642Z,1007.15
2019-04-19T11:20:14.513Z,1006.74
2019-04-19T11:21:11.766Z,1007.02
2019-04-19T11:22:24.251Z,1006.59
2019-04-19T11:23:37.866Z,1006.47
2019-04-19T11:24:50.032Z,1006.66
2019-04-19T11:26:03.047Z,1006.76
2019-04-19T11:27:15.203Z,1006.27
2019-04-19T11:28:27.087Z,1006.09
2019-04-19T11:29:40.443Z,1006.01
2019-04-19T11:30:53.331Z,1006.04
2019-04-19T11:32:06.079Z,1006.12
2019-04-19T11:33:19.023Z,1005.64
2019-04-19T11:34:31.359Z,1006.21
2019-04-19T11:35:43.563Z,1006.12
2019-04-19T11:36:55.955Z,1006.00
2019-04-19T11:38:08.959Z,1006.27
2019-04-19T11:39:21.182Z,1006.10
2019-04-19T11:40:33.526Z,1005.59
2019-04-19T11:41:47.214Z,1003.62
2019-04-19T11:42:59.502Z,1004.37
2019-04-19T11:44:17.430Z,1004.36
2019-04-19T11:45:23.862Z,1004.79
2019-04-19T11:46:36.115Z,1004.95
2019-04-19T11:47:49.136Z,1004.80
2019-04-19T11:49:01.734Z,1002.91
2019-04-19T11:50:13.764Z,1002.98
2019-04-19T11:51:25.810Z,1004.09
2019-04-19T11:52:38.229Z,1003.55
2019-04-19T11:53:50.614Z,1003.25
2019-04-19T11:55:04.606Z,1004.77
2019-04-19T11:56:16.435Z,1004.10
2019-04-19T11:57:28.321Z,1004.32
2019-04-19T11:58:40.388Z,1004.31
2019-04-19T11:59:54.575Z,1003.87
2019-04-19T12:01:05.735Z,1002.96
2019-04-19T12:02:17.920Z,1003.75
2019-04-19T12:03:30.042Z,1003.46
2019-04-19T12:04:42.052Z,1004.15
2019-04-19T12:05:55.943Z,1004.14
2019-04-19T12:07:08.211Z,1005.71
2019-04-19T12:08:20.442Z,1006.37
2019-04-19T12:09:32.476Z,1005.51
2019-04-19T12:10:44.420Z,1007.03
2019-04-19T12:11:58.196Z,1006.90
2019-04-19T12:13:10.984Z,1006.33
2019-04-19T12:14:25.225Z,1005.97
2019-04-19T12:15:35.873Z,1006.50
2019-04-19T12:16:47.578Z,1005.95
2019-04-19T12:18:00.026Z,1004.41
2019-04-19T12:19:12.059Z,1005.09
2019-04-19T12:20:24.774Z,1003.67
2019-04-19T12:21:36.972Z,1003.59
2019-04-19T12:22:49.993Z,1003.92
2019-04-19T12:24:01.032Z,1003.99
2019-04-19T12:25:13.475Z,1004.79
2019-04-19T12:26:25.798Z,1004.80
2019-04-19T12:27:39.371Z,1003.84
2019-04-19T12:28:51.280Z,1005.23
2019-04-19T12:30:02.803Z,1004.93
2019-04-19T12:31:15.688Z,1004.56
2019-04-19T12:32:27.710Z,1003.28
2019-04-19T12:33:39.770Z,1003.78
2019-04-19T12:34:52.961Z,1005.58
2019-04-19T12:36:05.501Z,1005.10
2019-04-19T12:37:19.404Z,1005.02
2019-04-19T12:38:33.220Z,1003.92
2019-04-19T12:39:43.476Z,1004.71
2019-04-19T12:40:56.141Z,1004.05
2019-04-19T12:42:08.152Z,1004.55
2019-04-19T12:43:20.756Z,1004.16
2019-04-19T12:44:33.245Z,1003.89
2019-04-19T12:45:47.723Z,1003.65
2019-04-19T12:46:57.536Z,1004.34
2019-04-19T12:48:09.920Z,1003.73
2019-04-19T12:49:22.683Z,1004.60
2019-04-19T12:50:36.997Z,1004.12
2019-04-19T12:51:48.042Z,1003.57
2019-04-19T12:53:00.072Z,1004.18
2019-04-19T12:54:12.121Z,1004.47
2019-04-19T12:55:24.070Z,1004.25
2019-04-19T12:56:36.306Z,1004.02
2019-04-19T12:57:49.914Z,1003.94
2019-04-19T12:59:01.958Z,1003.61
2019-04-19T13:00:14.288Z,1004.00
2019-04-19T13:01:27.916Z,1004.25
2019-04-19T13:02:39.964Z,1003.83
2019-04-19T13:03:52.510Z,1003.88
2019-04-19T13:05:04.563Z,1004.09
2019-04-19T13:06:17.500Z,1004.32
2019-04-19T13:07:28.978Z,1003.29
2019-04-19T13:08:41.201Z,1003.58
2019-04-19T13:09:53.264Z,1004.34
2019-04-19T13:11:07.041Z,1004.10
2019-04-19T13:12:19.000Z,1003.61
2019-04-19T13:13:31.756Z,1003.80
2019-04-19T13:14:43.844Z,1003.49
2019-04-19T13:15:56.548Z,1003.26
2019-04-19T13:17:08.328Z,1002.61
2019-04-19T13:18:20.361Z,1003.14
2019-04-19T13:19:33.300Z,1003.98
2019-04-19T13:20:46.019Z,1005.48
2019-04-19T13:21:58.536Z,1004.44
2019-04-19T13:23:10.469Z,1005.20
2019-04-19T13:24:22.523Z,1004.26
2019-04-19T13:25:35.282Z,1004.18
2019-04-19T13:26:47.427Z,1004.67
2019-04-19T13:28:01.252Z,1005.00
2019-04-19T13:29:11.486Z,1004.10
2019-04-19T13:30:31.469Z,1004.41
2019-04-19T13:31:36.574Z,1004.78
2019-04-19T13:32:47.771Z,1003.99
2019-04-19T13:34:00.563Z,1005.41
2019-04-19T13:35:13.041Z,1004.65
2019-04-19T13:36:24.922Z,1005.19
2019-04-19T13:37:37.010Z,1005.49
2019-04-19T13:38:49.226Z,1005.66
2019-04-19T13:40:02.036Z,1005.80
2019-04-19T13:41:14.561Z,1004.24
2019-04-19T13:42:26.770Z,1005.24
2019-04-19T13:43:38.645Z,1006.22
2019-04-19T13:44:50.626Z,1006.48
2019-04-19T13:46:04.398Z,1005.86
2019-04-19T13:47:16.447Z,1006.18
2019-04-19T13:48:28.292Z,1006.20
2019-04-19T13:49:40.321Z,1006.06
2019-04-19T13:50:52.428Z,1005.88
2019-04-19T13:52:04.688Z,1006.03
2019-04-19T13:53:16.940Z,1005.77
2019-04-19T13:54:30.320Z,1005.33
2019-04-19T13:55:42.495Z,1005.68
2019-04-19T13:56:55.439Z,1004.75
2019-04-19T13:58:07.385Z,1004.77
2019-04-19T13:59:20.099Z,1006.22
2019-04-19T14:00:31.741Z,1004.50
2019-04-19T14:01:43.978Z,1005.67
2019-04-19T14:02:56.216Z,1005.88
2019-04-19T14:04:08.504Z,1005.49
2019-04-19T14:05:20.702Z,1004.97
2019-04-19T14:06:32.899Z,1004.39
2019-04-19T14:07:45.360Z,1004.89
2019-04-19T14:08:57.557Z,1004.45
2019-04-19T14:10:09.602Z,1003.99
2019-04-19T14:11:21.455Z,1004.03
2019-04-19T14:12:33.431Z,1004.67
2019-04-19T14:13:50.845Z,1005.07
2019-04-19T14:14:57.438Z,1004.19
2019-04-19T14:16:09.431Z,1003.45
2019-04-19T14:17:22.033Z,1003.20
2019-04-19T14:18:33.344Z,1005.25
2019-04-19T14:19:45.296Z,1005.54
2019-04-19T14:20:57.603Z,1004.82
2019-04-19T14:22:09.226Z,1005.50
2019-04-19T14:23:21.680Z,1005.67
2019-04-19T14:24:33.421Z,1006.75
2019-04-19T14:25:45.391Z,1005.50
2019-04-19T14:26:58.919Z,1004.76
2019-04-19T14:28:09.447Z,1004.66
2019-04-19T14:29:21.420Z,1004.09
2019-04-19T14:30:33.318Z,1004.32
2019-04-19T14:31:46.219Z,1005.82
2019-04-19T14:32:57.947Z,1005.15
2019-04-19T14:34:09.138Z,1004.08
2019-04-19T14:35:21.741Z,1003.34
2019-04-19T14:36:34.091Z,1003.83
2019-04-19T14:37:46.061Z,1004.16
2019-04-19T14:38:58.307Z,1005.20
2019-04-19T14:40:10.205Z,1004.44
2019-04-19T14:41:21.261Z,1005.67
2019-04-19T14:42:33.251Z,1004.15
2019-04-19T14:43:45.239Z,1004.79
2019-04-19T14:44:58.229Z,1005.47
2019-04-19T14:46:10.960Z,1005.40
2019-04-19T14:47:21.674Z,1005.97
2019-04-19T14:48:36.952Z,1006.07
2019-04-19T14:49:47.091Z,1006.07
2019-04-19T14:51:03.183Z,1006.04
2019-04-19T14:52:10.255Z,1005.90
2019-04-19T14:53:22.384Z,1006.89
2019-04-19T14:54:35.062Z,1007.09
2019-04-19T14:55:46.244Z,1006.44
2019-04-19T14:56:58.672Z,1005.63
2019-04-19T14:58:09.772Z,1005.80
2019-04-19T14:59:21.603Z,1005.34
2019-04-19T15:00:34.555Z,1005.77
2019-04-19T15:01:45.230Z,1005.21
2019-04-19T15:02:58.717Z,1003.13
2019-04-19T15:04:09.225Z,1003.90
2019-04-19T15:05:21.501Z,1004.80
2019-04-19T15:06:35.699Z,1006.26
2019-04-19T15:07:46.454Z,1005.99